sensor_id;sensor_type;location;lat;lon;timestamp;P1;durP1;ratioP1;P2;durP2;ratioP2
19285;SDS011;9776;50.798;6.430;2022-12-29T00:00:14;1.05;;;1.05;;
19285;SDS011;9776;50.798;6.430;2022-12-29T00:02:42;1.10;;;1.10;;
19285;SDS011;9776;50.798;6.430;2022-12-29T00:05:09;1.30;;;1.30;;
19285;SDS011;9776;50.798;6.430;2022-12-29T00:07:35;1.42;;;1.38;;
19285;SDS011;9776;50.798;6.430;2022-12-29T00:10:02;1.20;;;1.20;;
19285;SDS011;9776;50.798;6.430;2022-12-29T00:12:30;1.27;;;1.27;;
19285;SDS011;9776;50.798;6.430;2022-12-29T00:15:16;1.30;;;1.30;;
19285;SDS011;9776;50.798;6.430;2022-12-29T00:18:07;1.50;;;1.50;;
19285;SDS011;9776;50.798;6.430;2022-12-29T00:20:34;1.25;;;1.25;;
19285;SDS011;9776;50.798;6.430;2022-12-29T00:23:19;1.40;;;1.40;;
19285;SDS011;9776;50.798;6.430;2022-12-29T00:26:04;1.38;;;1.38;;
19285;SDS011;9776;50.798;6.430;2022-12-29T00:28:53;1.40;;;1.40;;
19285;SDS011;9776;50.798;6.430;2022-12-29T00:31:37;1.38;;;1.38;;
19285;SDS011;9776;50.798;6.430;2022-12-29T00:34:22;1.20;;;1.20;;
19285;SDS011;9776;50.798;6.430;2022-12-29T00:37:07;1.23;;;1.23;;
19285;SDS011;9776;50.798;6.430;2022-12-29T00:39:34;1.40;;;1.40;;
19285;SDS011;9776;50.798;6.430;2022-12-29T00:42:18;1.45;;;1.45;;
19285;SDS011;9776;50.798;6.430;2022-12-29T00:44:58;1.75;;;1.70;;
19285;SDS011;9776;50.798;6.430;2022-12-29T00:47:25;1.60;;;1.50;;
19285;SDS011;9776;50.798;6.430;2022-12-29T00:49:53;1.15;;;1.15;;
19285;SDS011;9776;50.798;6.430;2022-12-29T00:52:19;1.40;;;1.40;;
19285;SDS011;9776;50.798;6.430;2022-12-29T00:54:46;1.42;;;1.42;;
19285;SDS011;9776;50.798;6.430;2022-12-29T00:57:12;1.15;;;1.15;;
19285;SDS011;9776;50.798;6.430;2022-12-29T00:59:40;1.23;;;1.23;;
19285;SDS011;9776;50.798;6.430;2022-12-29T01:02:08;1.27;;;1.27;;
19285;SDS011;9776;50.798;6.430;2022-12-29T01:04:35;1.58;;;1.58;;
19285;SDS011;9776;50.798;6.430;2022-12-29T01:07:04;1.35;;;1.27;;
19285;SDS011;9776;50.798;6.430;2022-12-29T01:09:31;1.30;;;1.30;;
19285;SDS011;9776;50.798;6.430;2022-12-29T01:12:16;2.03;;;1.67;;
19285;SDS011;9776;50.798;6.430;2022-12-29T01:15:03;1.10;;;1.10;;
19285;SDS011;9776;50.798;6.430;2022-12-29T01:17:30;1.35;;;1.35;;
19285;SDS011;9776;50.798;6.430;2022-12-29T01:19:57;1.25;;;1.25;;
19285;SDS011;9776;50.798;6.430;2022-12-29T01:22:25;1.30;;;1.30;;
19285;SDS011;9776;50.798;6.430;2022-12-29T01:24:52;1.42;;;1.33;;
19285;SDS011;9776;50.798;6.430;2022-12-29T01:27:18;1.75;;;1.65;;
19285;SDS011;9776;50.798;6.430;2022-12-29T01:29:45;1.17;;;1.17;;
19285;SDS011;9776;50.798;6.430;2022-12-29T01:32:12;1.30;;;1.30;;
19285;SDS011;9776;50.798;6.430;2022-12-29T01:34:39;1.40;;;1.40;;
19285;SDS011;9776;50.798;6.430;2022-12-29T01:37:06;1.58;;;1.48;;
19285;SDS011;9776;50.798;6.430;2022-12-29T01:39:34;1.73;;;1.63;;
19285;SDS011;9776;50.798;6.430;2022-12-29T01:42:01;1.58;;;1.50;;
19285;SDS011;9776;50.798;6.430;2022-12-29T01:44:47;1.30;;;1.30;;
19285;SDS011;9776;50.798;6.430;2022-12-29T01:47:18;1.40;;;1.30;;
19285;SDS011;9776;50.798;6.430;2022-12-29T01:49:49;1.50;;;1.40;;
19285;SDS011;9776;50.798;6.430;2022-12-29T01:52:18;1.60;;;1.50;;
19285;SDS011;9776;50.798;6.430;2022-12-29T01:54:47;1.35;;;1.25;;
19285;SDS011;9776;50.798;6.430;2022-12-29T01:57:19;1.35;;;1.30;;
19285;SDS011;9776;50.798;6.430;2022-12-29T01:59:50;1.40;;;1.30;;
19285;SDS011;9776;50.798;6.430;2022-12-29T02:02:23;1.30;;;1.30;;
19285;SDS011;9776;50.798;6.430;2022-12-29T02:04:50;1.55;;;1.45;;
19285;SDS011;9776;50.798;6.430;2022-12-29T02:07:20;1.35;;;1.35;;
19285;SDS011;9776;50.798;6.430;2022-12-29T02:09:50;1.20;;;1.20;;
19285;SDS011;9776;50.798;6.430;2022-12-29T02:12:19;1.65;;;1.55;;
19285;SDS011;9776;50.798;6.430;2022-12-29T02:14:47;1.50;;;1.40;;
19285;SDS011;9776;50.798;6.430;2022-12-29T02:17:20;1.42;;;1.42;;
19285;SDS011;9776;50.798;6.430;2022-12-29T02:20:20;1.40;;;1.40;;
19285;SDS011;9776;50.798;6.430;2022-12-29T02:26:18;1.35;;;1.35;;
19285;SDS011;9776;50.798;6.430;2022-12-29T02:29:08;1.67;;;1.58;;
19285;SDS011;9776;50.798;6.430;2022-12-29T02:31:52;1.40;;;1.30;;
19285;SDS011;9776;50.798;6.430;2022-12-29T02:34:26;1.38;;;1.38;;
19285;SDS011;9776;50.798;6.430;2022-12-29T02:37:06;1.40;;;1.40;;
19285;SDS011;9776;50.798;6.430;2022-12-29T02:39:40;1.52;;;1.42;;
19285;SDS011;9776;50.798;6.430;2022-12-29T02:42:29;1.50;;;1.40;;
19285;SDS011;9776;50.798;6.430;2022-12-29T02:45:01;1.40;;;1.40;;
19285;SDS011;9776;50.798;6.430;2022-12-29T02:47:35;1.58;;;1.50;;
19285;SDS011;9776;50.798;6.430;2022-12-29T02:50:07;1.45;;;1.40;;
19285;SDS011;9776;50.798;6.430;2022-12-29T02:52:40;1.30;;;1.30;;
19285;SDS011;9776;50.798;6.430;2022-12-29T02:55:13;1.30;;;1.30;;
19285;SDS011;9776;50.798;6.430;2022-12-29T02:57:38;1.38;;;1.38;;
19285;SDS011;9776;50.798;6.430;2022-12-29T03:00:06;1.33;;;1.33;;
19285;SDS011;9776;50.798;6.430;2022-12-29T03:02:59;1.42;;;1.40;;
19285;SDS011;9776;50.798;6.430;2022-12-29T03:05:41;1.23;;;1.23;;
19285;SDS011;9776;50.798;6.430;2022-12-29T03:08:28;1.48;;;1.40;;
19285;SDS011;9776;50.798;6.430;2022-12-29T03:11:04;1.20;;;1.20;;
19285;SDS011;9776;50.798;6.430;2022-12-29T03:13:56;1.50;;;1.40;;
19285;SDS011;9776;50.798;6.430;2022-12-29T03:16:44;1.40;;;1.40;;
19285;SDS011;9776;50.798;6.430;2022-12-29T03:19:16;1.58;;;1.48;;
19285;SDS011;9776;50.798;6.430;2022-12-29T03:21:48;1.40;;;1.40;;
19285;SDS011;9776;50.798;6.430;2022-12-29T03:24:45;1.33;;;1.30;;
19285;SDS011;9776;50.798;6.430;2022-12-29T03:27:17;1.58;;;1.48;;
19285;SDS011;9776;50.798;6.430;2022-12-29T03:29:46;1.80;;;1.70;;
19285;SDS011;9776;50.798;6.430;2022-12-29T03:32:20;1.30;;;1.20;;
19285;SDS011;9776;50.798;6.430;2022-12-29T03:34:51;1.20;;;1.20;;
19285;SDS011;9776;50.798;6.430;2022-12-29T03:37:21;1.60;;;1.50;;
19285;SDS011;9776;50.798;6.430;2022-12-29T03:39:52;1.63;;;1.58;;
19285;SDS011;9776;50.798;6.430;2022-12-29T03:42:20;1.50;;;1.40;;
19285;SDS011;9776;50.798;6.430;2022-12-29T03:44:52;1.48;;;1.40;;
19285;SDS011;9776;50.798;6.430;2022-12-29T03:47:20;1.48;;;1.48;;
19285;SDS011;9776;50.798;6.430;2022-12-29T03:49:48;1.50;;;1.40;;
19285;SDS011;9776;50.798;6.430;2022-12-29T03:52:17;1.70;;;1.60;;
19285;SDS011;9776;50.798;6.430;2022-12-29T03:54:44;1.60;;;1.50;;
19285;SDS011;9776;50.798;6.430;2022-12-29T03:57:11;1.42;;;1.33;;
19285;SDS011;9776;50.798;6.430;2022-12-29T03:59:38;1.58;;;1.48;;
19285;SDS011;9776;50.798;6.430;2022-12-29T04:02:04;1.50;;;1.50;;
19285;SDS011;9776;50.798;6.430;2022-12-29T04:04:31;1.40;;;1.40;;
19285;SDS011;9776;50.798;6.430;2022-12-29T04:06:58;1.63;;;1.52;;
19285;SDS011;9776;50.798;6.430;2022-12-29T04:09:26;1.80;;;1.70;;
19285;SDS011;9776;50.798;6.430;2022-12-29T04:11:54;1.60;;;1.50;;
19285;SDS011;9776;50.798;6.430;2022-12-29T04:14:21;1.40;;;1.40;;
19285;SDS011;9776;50.798;6.430;2022-12-29T04:16:48;1.85;;;1.75;;
19285;SDS011;9776;50.798;6.430;2022-12-29T04:19:14;1.75;;;1.65;;
19285;SDS011;9776;50.798;6.430;2022-12-29T04:21:41;1.67;;;1.60;;
19285;SDS011;9776;50.798;6.430;2022-12-29T04:24:08;1.38;;;1.38;;
19285;SDS011;9776;50.798;6.430;2022-12-29T04:26:36;1.30;;;1.30;;
19285;SDS011;9776;50.798;6.430;2022-12-29T04:29:03;1.42;;;1.38;;
19285;SDS011;9776;50.798;6.430;2022-12-29T04:31:29;1.33;;;1.23;;
19285;SDS011;9776;50.798;6.430;2022-12-29T04:33:56;1.33;;;1.33;;
19285;SDS011;9776;50.798;6.430;2022-12-29T04:36:24;1.48;;;1.40;;
19285;SDS011;9776;50.798;6.430;2022-12-29T04:38:51;1.70;;;1.60;;
19285;SDS011;9776;50.798;6.430;2022-12-29T04:41:18;1.38;;;1.38;;
19285;SDS011;9776;50.798;6.430;2022-12-29T04:43:46;1.10;;;1.10;;
19285;SDS011;9776;50.798;6.430;2022-12-29T04:46:12;1.42;;;1.42;;
19285;SDS011;9776;50.798;6.430;2022-12-29T04:48:39;1.38;;;1.27;;
19285;SDS011;9776;50.798;6.430;2022-12-29T04:51:06;1.35;;;1.30;;
19285;SDS011;9776;50.798;6.430;2022-12-29T04:53:33;1.20;;;1.20;;
19285;SDS011;9776;50.798;6.430;2022-12-29T04:55:59;1.60;;;1.50;;
19285;SDS011;9776;50.798;6.430;2022-12-29T04:58:26;1.30;;;1.30;;
19285;SDS011;9776;50.798;6.430;2022-12-29T05:00:54;1.23;;;1.23;;
19285;SDS011;9776;50.798;6.430;2022-12-29T05:03:21;1.10;;;1.10;;
19285;SDS011;9776;50.798;6.430;2022-12-29T05:05:48;1.27;;;1.27;;
19285;SDS011;9776;50.798;6.430;2022-12-29T05:08:15;1.20;;;1.20;;
19285;SDS011;9776;50.798;6.430;2022-12-29T05:10:43;1.30;;;1.30;;
19285;SDS011;9776;50.798;6.430;2022-12-29T05:13:10;1.33;;;1.33;;
19285;SDS011;9776;50.798;6.430;2022-12-29T05:15:37;1.50;;;1.50;;
19285;SDS011;9776;50.798;6.430;2022-12-29T05:18:05;1.30;;;1.30;;
19285;SDS011;9776;50.798;6.430;2022-12-29T05:20:32;1.58;;;1.48;;
19285;SDS011;9776;50.798;6.430;2022-12-29T05:22:59;1.20;;;1.20;;
19285;SDS011;9776;50.798;6.430;2022-12-29T05:25:25;1.40;;;1.30;;
19285;SDS011;9776;50.798;6.430;2022-12-29T05:27:52;1.50;;;1.40;;
19285;SDS011;9776;50.798;6.430;2022-12-29T05:30:19;1.52;;;1.50;;
19285;SDS011;9776;50.798;6.430;2022-12-29T05:32:46;1.25;;;1.20;;
19285;SDS011;9776;50.798;6.430;2022-12-29T05:35:14;1.23;;;1.20;;
19285;SDS011;9776;50.798;6.430;2022-12-29T05:37:41;1.73;;;1.63;;
19285;SDS011;9776;50.798;6.430;2022-12-29T05:40:08;1.35;;;1.30;;
19285;SDS011;9776;50.798;6.430;2022-12-29T05:42:35;1.33;;;1.33;;
19285;SDS011;9776;50.798;6.430;2022-12-29T05:45:02;1.63;;;1.52;;
19285;SDS011;9776;50.798;6.430;2022-12-29T05:47:32;1.63;;;1.40;;
19285;SDS011;9776;50.798;6.430;2022-12-29T05:49:59;1.27;;;1.20;;
19285;SDS011;9776;50.798;6.430;2022-12-29T05:52:27;1.35;;;1.33;;
19285;SDS011;9776;50.798;6.430;2022-12-29T05:54:54;1.52;;;1.27;;
19285;SDS011;9776;50.798;6.430;2022-12-29T05:57:21;1.20;;;1.20;;
19285;SDS011;9776;50.798;6.430;2022-12-29T05:59:48;1.50;;;1.40;;
19285;SDS011;9776;50.798;6.430;2022-12-29T06:02:14;1.23;;;1.23;;
19285;SDS011;9776;50.798;6.430;2022-12-29T06:04:41;1.15;;;1.15;;
19285;SDS011;9776;50.798;6.430;2022-12-29T06:07:08;1.30;;;1.30;;
19285;SDS011;9776;50.798;6.430;2022-12-29T06:09:36;1.30;;;1.30;;
19285;SDS011;9776;50.798;6.430;2022-12-29T06:12:03;1.60;;;1.50;;
19285;SDS011;9776;50.798;6.430;2022-12-29T06:14:30;1.50;;;1.50;;
19285;SDS011;9776;50.798;6.430;2022-12-29T06:16:56;1.70;;;1.60;;
19285;SDS011;9776;50.798;6.430;2022-12-29T06:19:23;1.55;;;1.45;;
19285;SDS011;9776;50.798;6.430;2022-12-29T06:21:50;1.30;;;1.30;;
19285;SDS011;9776;50.798;6.430;2022-12-29T06:24:17;1.40;;;1.30;;
19285;SDS011;9776;50.798;6.430;2022-12-29T06:26:45;1.33;;;1.33;;
19285;SDS011;9776;50.798;6.430;2022-12-29T06:29:12;1.33;;;1.30;;
19285;SDS011;9776;50.798;6.430;2022-12-29T06:31:41;1.38;;;1.30;;
19285;SDS011;9776;50.798;6.430;2022-12-29T06:34:10;1.55;;;1.50;;
19285;SDS011;9776;50.798;6.430;2022-12-29T06:36:37;1.50;;;1.40;;
19285;SDS011;9776;50.798;6.430;2022-12-29T06:39:04;1.45;;;1.35;;
19285;SDS011;9776;50.798;6.430;2022-12-29T06:41:31;2.60;;;1.60;;
19285;SDS011;9776;50.798;6.430;2022-12-29T06:43:59;2.00;;;1.60;;
19285;SDS011;9776;50.798;6.430;2022-12-29T06:46:26;1.35;;;1.30;;
19285;SDS011;9776;50.798;6.430;2022-12-29T06:48:52;1.30;;;1.30;;
19285;SDS011;9776;50.798;6.430;2022-12-29T06:51:19;1.20;;;1.20;;
19285;SDS011;9776;50.798;6.430;2022-12-29T06:53:46;1.40;;;1.30;;
19285;SDS011;9776;50.798;6.430;2022-12-29T06:56:12;1.40;;;1.30;;
19285;SDS011;9776;50.798;6.430;2022-12-29T06:58:39;1.50;;;1.40;;
19285;SDS011;9776;50.798;6.430;2022-12-29T07:01:07;1.50;;;1.40;;
19285;SDS011;9776;50.798;6.430;2022-12-29T07:03:34;1.65;;;1.55;;
19285;SDS011;9776;50.798;6.430;2022-12-29T07:06:00;1.60;;;1.50;;
19285;SDS011;9776;50.798;6.430;2022-12-29T07:08:27;1.38;;;1.38;;
19285;SDS011;9776;50.798;6.430;2022-12-29T07:10:54;1.33;;;1.25;;
19285;SDS011;9776;50.798;6.430;2022-12-29T07:13:21;1.58;;;1.48;;
19285;SDS011;9776;50.798;6.430;2022-12-29T07:15:48;1.67;;;1.42;;
19285;SDS011;9776;50.798;6.430;2022-12-29T07:18:16;1.42;;;1.33;;
19285;SDS011;9776;50.798;6.430;2022-12-29T07:20:43;1.70;;;1.60;;
19285;SDS011;9776;50.798;6.430;2022-12-29T07:23:10;1.42;;;1.33;;
19285;SDS011;9776;50.798;6.430;2022-12-29T07:25:37;1.52;;;1.42;;
19285;SDS011;9776;50.798;6.430;2022-12-29T07:28:05;1.75;;;1.65;;
19285;SDS011;9776;50.798;6.430;2022-12-29T07:30:33;1.50;;;1.40;;
19285;SDS011;9776;50.798;6.430;2022-12-29T07:32:59;1.70;;;1.60;;
19285;SDS011;9776;50.798;6.430;2022-12-29T07:35:28;1.92;;;1.58;;
19285;SDS011;9776;50.798;6.430;2022-12-29T07:37:54;1.70;;;1.45;;
19285;SDS011;9776;50.798;6.430;2022-12-29T07:40:21;1.70;;;1.60;;
19285;SDS011;9776;50.798;6.430;2022-12-29T07:42:48;1.85;;;1.75;;
19285;SDS011;9776;50.798;6.430;2022-12-29T07:45:14;1.80;;;1.70;;
19285;SDS011;9776;50.798;6.430;2022-12-29T07:47:41;1.60;;;1.50;;
19285;SDS011;9776;50.798;6.430;2022-12-29T07:50:08;1.77;;;1.60;;
19285;SDS011;9776;50.798;6.430;2022-12-29T07:52:36;1.70;;;1.60;;
19285;SDS011;9776;50.798;6.430;2022-12-29T07:55:03;2.30;;;1.75;;
19285;SDS011;9776;50.798;6.430;2022-12-29T07:57:30;1.45;;;1.30;;
19285;SDS011;9776;50.798;6.430;2022-12-29T07:59:56;1.77;;;1.65;;
19285;SDS011;9776;50.798;6.430;2022-12-29T08:02:23;1.52;;;1.42;;
19285;SDS011;9776;50.798;6.430;2022-12-29T08:04:51;1.55;;;1.45;;
19285;SDS011;9776;50.798;6.430;2022-12-29T08:07:17;1.65;;;1.50;;
19285;SDS011;9776;50.798;6.430;2022-12-29T08:09:45;1.30;;;1.20;;
19285;SDS011;9776;50.798;6.430;2022-12-29T08:12:12;1.42;;;1.33;;
19285;SDS011;9776;50.798;6.430;2022-12-29T08:14:39;1.60;;;1.50;;
19285;SDS011;9776;50.798;6.430;2022-12-29T08:17:05;1.58;;;1.48;;
19285;SDS011;9776;50.798;6.430;2022-12-29T08:19:32;1.88;;;1.77;;
19285;SDS011;9776;50.798;6.430;2022-12-29T08:21:59;1.83;;;1.40;;
19285;SDS011;9776;50.798;6.430;2022-12-29T08:24:26;1.58;;;1.48;;
19285;SDS011;9776;50.798;6.430;2022-12-29T08:26:54;1.58;;;1.48;;
19285;SDS011;9776;50.798;6.430;2022-12-29T08:29:21;1.77;;;1.67;;
19285;SDS011;9776;50.798;6.430;2022-12-29T08:31:48;1.60;;;1.50;;
19285;SDS011;9776;50.798;6.430;2022-12-29T08:34:14;1.65;;;1.50;;
19285;SDS011;9776;50.798;6.430;2022-12-29T08:36:41;1.55;;;1.45;;
19285;SDS011;9776;50.798;6.430;2022-12-29T08:39:08;2.00;;;1.80;;
19285;SDS011;9776;50.798;6.430;2022-12-29T08:41:35;1.70;;;1.60;;
19285;SDS011;9776;50.798;6.430;2022-12-29T08:44:03;1.50;;;1.40;;
19285;SDS011;9776;50.798;6.430;2022-12-29T08:46:30;1.60;;;1.50;;
19285;SDS011;9776;50.798;6.430;2022-12-29T08:48:57;1.92;;;1.73;;
19285;SDS011;9776;50.798;6.430;2022-12-29T08:51:23;1.40;;;1.30;;
19285;SDS011;9776;50.798;6.430;2022-12-29T08:53:50;1.88;;;1.77;;
19285;SDS011;9776;50.798;6.430;2022-12-29T08:56:17;1.85;;;1.73;;
19285;SDS011;9776;50.798;6.430;2022-12-29T08:58:44;2.78;;;1.67;;
19285;SDS011;9776;50.798;6.430;2022-12-29T09:01:12;1.48;;;1.35;;
19285;SDS011;9776;50.798;6.430;2022-12-29T09:03:39;1.95;;;1.65;;
19285;SDS011;9776;50.798;6.430;2022-12-29T09:06:06;1.60;;;1.50;;
19285;SDS011;9776;50.798;6.430;2022-12-29T09:08:33;2.03;;;1.55;;
19285;SDS011;9776;50.798;6.430;2022-12-29T09:11:05;2.22;;;2.03;;
19285;SDS011;9776;50.798;6.430;2022-12-29T09:13:32;1.90;;;1.73;;
19285;SDS011;9776;50.798;6.430;2022-12-29T09:15:59;1.75;;;1.65;;
19285;SDS011;9776;50.798;6.430;2022-12-29T09:18:27;2.10;;;1.90;;
19285;SDS011;9776;50.798;6.430;2022-12-29T09:20:55;1.77;;;1.60;;
19285;SDS011;9776;50.798;6.430;2022-12-29T09:23:23;2.00;;;1.90;;
19285;SDS011;9776;50.798;6.430;2022-12-29T09:25:50;1.55;;;1.45;;
19285;SDS011;9776;50.798;6.430;2022-12-29T09:28:17;1.70;;;1.60;;
19285;SDS011;9776;50.798;6.430;2022-12-29T09:30:44;2.20;;;1.77;;
19285;SDS011;9776;50.798;6.430;2022-12-29T09:33:11;2.08;;;1.80;;
19285;SDS011;9776;50.798;6.430;2022-12-29T09:35:42;1.60;;;1.50;;
19285;SDS011;9776;50.798;6.430;2022-12-29T09:38:09;1.67;;;1.58;;
19285;SDS011;9776;50.798;6.430;2022-12-29T09:40:37;2.45;;;1.77;;
19285;SDS011;9776;50.798;6.430;2022-12-29T09:43:10;2.60;;;1.77;;
19285;SDS011;9776;50.798;6.430;2022-12-29T09:45:47;1.70;;;1.60;;
19285;SDS011;9776;50.798;6.430;2022-12-29T09:48:27;2.92;;;1.58;;
19285;SDS011;9776;50.798;6.430;2022-12-29T09:51:00;1.83;;;1.67;;
19285;SDS011;9776;50.798;6.430;2022-12-29T09:53:30;1.73;;;1.63;;
19285;SDS011;9776;50.798;6.430;2022-12-29T09:56:02;1.77;;;1.67;;
19285;SDS011;9776;50.798;6.430;2022-12-29T09:58:32;1.67;;;1.58;;
19285;SDS011;9776;50.798;6.430;2022-12-29T10:01:04;1.58;;;1.48;;
19285;SDS011;9776;50.798;6.430;2022-12-29T10:03:36;1.50;;;1.40;;
19285;SDS011;9776;50.798;6.430;2022-12-29T10:06:15;2.17;;;1.77;;
19285;SDS011;9776;50.798;6.430;2022-12-29T10:08:49;1.77;;;1.67;;
19285;SDS011;9776;50.798;6.430;2022-12-29T10:11:26;1.58;;;1.48;;
19285;SDS011;9776;50.798;6.430;2022-12-29T10:14:07;2.00;;;1.85;;
19285;SDS011;9776;50.798;6.430;2022-12-29T10:16:46;2.10;;;1.90;;
19285;SDS011;9776;50.798;6.430;2022-12-29T10:22:26;1.67;;;1.58;;
19285;SDS011;9776;50.798;6.430;2022-12-29T10:25:08;1.70;;;1.55;;
19285;SDS011;9776;50.798;6.430;2022-12-29T10:27:41;2.70;;;1.70;;
19285;SDS011;9776;50.798;6.430;2022-12-29T10:30:11;1.50;;;1.40;;
19285;SDS011;9776;50.798;6.430;2022-12-29T10:32:40;1.60;;;1.50;;
19285;SDS011;9776;50.798;6.430;2022-12-29T10:35:12;1.77;;;1.67;;
19285;SDS011;9776;50.798;6.430;2022-12-29T10:37:45;1.50;;;1.40;;
19285;SDS011;9776;50.798;6.430;2022-12-29T10:40:19;1.67;;;1.58;;
19285;SDS011;9776;50.798;6.430;2022-12-29T10:42:53;1.63;;;1.52;;
19285;SDS011;9776;50.798;6.430;2022-12-29T10:45:21;1.65;;;1.55;;
19285;SDS011;9776;50.798;6.430;2022-12-29T10:47:54;2.00;;;1.90;;
19285;SDS011;9776;50.798;6.430;2022-12-29T10:50:26;2.20;;;1.52;;
19285;SDS011;9776;50.798;6.430;2022-12-29T10:52:55;2.72;;;1.60;;
19285;SDS011;9776;50.798;6.430;2022-12-29T10:55:27;2.15;;;1.88;;
19285;SDS011;9776;50.798;6.430;2022-12-29T10:57:59;1.85;;;1.70;;
19285;SDS011;9776;50.798;6.430;2022-12-29T11:00:31;2.75;;;1.77;;
19285;SDS011;9776;50.798;6.430;2022-12-29T11:03:12;1.50;;;1.40;;
19285;SDS011;9776;50.798;6.430;2022-12-29T11:05:57;2.00;;;1.50;;
19285;SDS011;9776;50.798;6.430;2022-12-29T11:08:33;2.00;;;1.90;;
19285;SDS011;9776;50.798;6.430;2022-12-29T11:11:03;2.22;;;2.00;;
19285;SDS011;9776;50.798;6.430;2022-12-29T11:13:31;2.75;;;1.90;;
19285;SDS011;9776;50.798;6.430;2022-12-29T11:15:59;1.67;;;1.58;;
19285;SDS011;9776;50.798;6.430;2022-12-29T11:18:31;1.60;;;1.50;;
19285;SDS011;9776;50.798;6.430;2022-12-29T11:21:01;1.85;;;1.63;;
19285;SDS011;9776;50.798;6.430;2022-12-29T11:23:32;1.70;;;1.60;;
19285;SDS011;9776;50.798;6.430;2022-12-29T11:28:46;1.63;;;1.52;;
19285;SDS011;9776;50.798;6.430;2022-12-29T11:31:30;2.42;;;2.13;;
19285;SDS011;9776;50.798;6.430;2022-12-29T11:33:57;2.83;;;2.15;;
19285;SDS011;9776;50.798;6.430;2022-12-29T11:36:23;1.80;;;1.70;;
19285;SDS011;9776;50.798;6.430;2022-12-29T11:38:52;2.17;;;2.00;;
19285;SDS011;9776;50.798;6.430;2022-12-29T11:41:22;3.03;;;2.83;;
19285;SDS011;9776;50.798;6.430;2022-12-29T11:43:51;4.00;;;3.20;;
19285;SDS011;9776;50.798;6.430;2022-12-29T11:46:20;4.32;;;3.92;;
19285;SDS011;9776;50.798;6.430;2022-12-29T11:48:52;3.97;;;3.78;;
19285;SDS011;9776;50.798;6.430;2022-12-29T11:51:23;4.25;;;3.85;;
19285;SDS011;9776;50.798;6.430;2022-12-29T11:53:56;4.03;;;3.72;;
19285;SDS011;9776;50.798;6.430;2022-12-29T11:56:33;3.42;;;3.22;;
19285;SDS011;9776;50.798;6.430;2022-12-29T11:59:21;3.00;;;2.80;;
19285;SDS011;9776;50.798;6.430;2022-12-29T12:02:03;3.10;;;2.30;;
19285;SDS011;9776;50.798;6.430;2022-12-29T12:04:44;2.35;;;2.22;;
19285;SDS011;9776;50.798;6.430;2022-12-29T12:07:11;2.60;;;2.40;;
19285;SDS011;9776;50.798;6.430;2022-12-29T12:09:45;2.33;;;2.13;;
19285;SDS011;9776;50.798;6.430;2022-12-29T12:12:19;2.50;;;1.92;;
19285;SDS011;9776;50.798;6.430;2022-12-29T12:14:51;1.75;;;1.65;;
19285;SDS011;9776;50.798;6.430;2022-12-29T12:17:23;2.22;;;1.77;;
19285;SDS011;9776;50.798;6.430;2022-12-29T12:20:03;2.13;;;1.92;;
19285;SDS011;9776;50.798;6.430;2022-12-29T12:22:41;2.05;;;1.63;;
19285;SDS011;9776;50.798;6.430;2022-12-29T12:25:13;2.20;;;1.88;;
19285;SDS011;9776;50.798;6.430;2022-12-29T12:27:47;2.00;;;1.80;;
19285;SDS011;9776;50.798;6.430;2022-12-29T12:30:18;2.22;;;1.98;;
19285;SDS011;9776;50.798;6.430;2022-12-29T12:32:47;2.05;;;1.92;;
19285;SDS011;9776;50.798;6.430;2022-12-29T12:35:20;2.42;;;2.22;;
19285;SDS011;9776;50.798;6.430;2022-12-29T12:37:58;3.33;;;3.13;;
19285;SDS011;9776;50.798;6.430;2022-12-29T12:40:47;3.95;;;3.75;;
19285;SDS011;9776;50.798;6.430;2022-12-29T12:43:29;3.25;;;3.05;;
19285;SDS011;9776;50.798;6.430;2022-12-29T12:46:07;3.50;;;3.20;;
19285;SDS011;9776;50.798;6.430;2022-12-29T12:48:49;3.78;;;3.22;;
19285;SDS011;9776;50.798;6.430;2022-12-29T12:51:32;3.60;;;3.30;;
19285;SDS011;9776;50.798;6.430;2022-12-29T12:54:11;4.18;;;3.88;;
19285;SDS011;9776;50.798;6.430;2022-12-29T12:57:01;2.97;;;2.78;;
19285;SDS011;9776;50.798;6.430;2022-12-29T12:59:44;3.70;;;3.40;;
19285;SDS011;9776;50.798;6.430;2022-12-29T13:02:28;3.28;;;3.08;;
19285;SDS011;9776;50.798;6.430;2022-12-29T13:05:09;3.03;;;2.83;;
19285;SDS011;9776;50.798;6.430;2022-12-29T13:07:55;2.95;;;2.75;;
19285;SDS011;9776;50.798;6.430;2022-12-29T13:10:36;2.72;;;2.53;;
19285;SDS011;9776;50.798;6.430;2022-12-29T13:13:28;2.60;;;2.40;;
19285;SDS011;9776;50.798;6.430;2022-12-29T13:16:14;2.20;;;2.03;;
19285;SDS011;9776;50.798;6.430;2022-12-29T13:18:46;2.53;;;2.33;;
19285;SDS011;9776;50.798;6.430;2022-12-29T13:21:24;2.47;;;2.28;;
19285;SDS011;9776;50.798;6.430;2022-12-29T13:23:56;2.10;;;2.00;;
19285;SDS011;9776;50.798;6.430;2022-12-29T13:26:28;2.47;;;2.25;;
19285;SDS011;9776;50.798;6.430;2022-12-29T13:29:04;2.50;;;2.30;;
19285;SDS011;9776;50.798;6.430;2022-12-29T13:31:41;2.20;;;1.92;;
19285;SDS011;9776;50.798;6.430;2022-12-29T13:34:15;2.45;;;2.20;;
19285;SDS011;9776;50.798;6.430;2022-12-29T13:36:52;3.00;;;2.08;;
19285;SDS011;9776;50.798;6.430;2022-12-29T13:39:23;2.15;;;2.05;;
19285;SDS011;9776;50.798;6.430;2022-12-29T13:41:55;2.13;;;1.92;;
19285;SDS011;9776;50.798;6.430;2022-12-29T13:44:25;2.50;;;2.30;;
19285;SDS011;9776;50.798;6.430;2022-12-29T13:46:54;2.40;;;2.20;;
19285;SDS011;9776;50.798;6.430;2022-12-29T13:49:25;2.15;;;2.05;;
19285;SDS011;9776;50.798;6.430;2022-12-29T13:51:54;3.00;;;2.58;;
19285;SDS011;9776;50.798;6.430;2022-12-29T13:54:26;2.20;;;2.00;;
19285;SDS011;9776;50.798;6.430;2022-12-29T13:57:02;1.85;;;1.73;;
19285;SDS011;9776;50.798;6.430;2022-12-29T13:59:38;2.33;;;2.13;;
19285;SDS011;9776;50.798;6.430;2022-12-29T14:02:17;1.90;;;1.80;;
19285;SDS011;9776;50.798;6.430;2022-12-29T14:05:00;2.72;;;1.90;;
19285;SDS011;9776;50.798;6.430;2022-12-29T14:07:29;1.95;;;1.60;;
19285;SDS011;9776;50.798;6.430;2022-12-29T14:10:02;1.85;;;1.30;;
19285;SDS011;9776;50.798;6.430;2022-12-29T14:12:32;2.40;;;1.88;;
19285;SDS011;9776;50.798;6.430;2022-12-29T14:15:13;1.83;;;1.73;;
19285;SDS011;9776;50.798;6.430;2022-12-29T14:17:59;1.92;;;1.80;;
19285;SDS011;9776;50.798;6.430;2022-12-29T14:20:29;2.00;;;1.88;;
19285;SDS011;9776;50.798;6.430;2022-12-29T14:22:58;2.80;;;2.10;;
19285;SDS011;9776;50.798;6.430;2022-12-29T14:28:22;2.17;;;1.98;;
19285;SDS011;9776;50.798;6.430;2022-12-29T14:30:52;1.50;;;1.40;;
19285;SDS011;9776;50.798;6.430;2022-12-29T14:33:21;1.95;;;1.75;;
19285;SDS011;9776;50.798;6.430;2022-12-29T14:35:52;1.75;;;1.65;;
19285;SDS011;9776;50.798;6.430;2022-12-29T14:38:24;1.92;;;1.70;;
19285;SDS011;9776;50.798;6.430;2022-12-29T14:40:53;2.13;;;1.80;;
19285;SDS011;9776;50.798;6.430;2022-12-29T14:43:55;2.00;;;1.80;;
19285;SDS011;9776;50.798;6.430;2022-12-29T14:46:26;2.38;;;1.80;;
19285;SDS011;9776;50.798;6.430;2022-12-29T14:49:14;2.47;;;1.90;;
19285;SDS011;9776;50.798;6.430;2022-12-29T14:51:44;1.95;;;1.75;;
19285;SDS011;9776;50.798;6.430;2022-12-29T14:57:13;2.08;;;1.90;;
19285;SDS011;9776;50.798;6.430;2022-12-29T14:59:45;2.05;;;1.77;;
19285;SDS011;9776;50.798;6.430;2022-12-29T15:02:16;2.67;;;2.20;;
19285;SDS011;9776;50.798;6.430;2022-12-29T15:04:46;2.30;;;2.10;;
19285;SDS011;9776;50.798;6.430;2022-12-29T15:07:13;1.85;;;1.75;;
19285;SDS011;9776;50.798;6.430;2022-12-29T15:09:42;3.17;;;2.08;;
19285;SDS011;9776;50.798;6.430;2022-12-29T15:12:17;2.65;;;2.20;;
19285;SDS011;9776;50.798;6.430;2022-12-29T15:14:50;2.42;;;1.90;;
19285;SDS011;9776;50.798;6.430;2022-12-29T15:17:26;2.72;;;2.10;;
19285;SDS011;9776;50.798;6.430;2022-12-29T15:19:55;2.33;;;2.05;;
19285;SDS011;9776;50.798;6.430;2022-12-29T15:22:23;2.58;;;2.05;;
19285;SDS011;9776;50.798;6.430;2022-12-29T15:24:52;2.28;;;1.92;;
19285;SDS011;9776;50.798;6.430;2022-12-29T15:27:21;2.17;;;2.08;;
19285;SDS011;9776;50.798;6.430;2022-12-29T15:29:55;2.05;;;1.83;;
19285;SDS011;9776;50.798;6.430;2022-12-29T15:32:24;2.08;;;1.88;;
19285;SDS011;9776;50.798;6.430;2022-12-29T15:34:53;2.25;;;2.05;;
19285;SDS011;9776;50.798;6.430;2022-12-29T15:37:23;2.17;;;1.70;;
19285;SDS011;9776;50.798;6.430;2022-12-29T15:39:53;2.13;;;1.90;;